sensor_id;sensor_type;location;lat;lon;timestamp;temperature;humidity
34877;DHT22;21086;44.780;17.194;2023-09-07T00:01:07;18.00;99.90
34877;DHT22;21086;44.780;17.194;2023-09-07T00:03:54;18.00;99.90
34877;DHT22;21086;44.780;17.194;2023-09-07T00:06:42;17.90;99.90
34877;DHT22;21086;44.780;17.194;2023-09-07T00:09:30;17.90;99.90
34877;DHT22;21086;44.780;17.194;2023-09-07T00:12:17;17.80;99.90
34877;DHT22;21086;44.780;17.194;2023-09-07T00:15:05;17.90;99.90
34877;DHT22;21086;44.780;17.194;2023-09-07T00:17:57;17.90;99.90
34877;DHT22;21086;44.780;17.194;2023-09-07T00:20:44;17.80;99.90
34877;DHT22;21086;44.780;17.194;2023-09-07T00:23:32;17.70;99.90
34877;DHT22;21086;44.780;17.194;2023-09-07T00:26:19;17.70;99.90
34877;DHT22;21086;44.780;17.194;2023-09-07T00:29:06;17.70;99.90
34877;DHT22;21086;44.780;17.194;2023-09-07T00:31:53;17.70;99.90
34877;DHT22;21086;44.780;17.194;2023-09-07T00:34:41;17.60;99.90
34877;DHT22;21086;44.780;17.194;2023-09-07T00:37:28;17.60;99.90
34877;DHT22;21086;44.780;17.194;2023-09-07T00:40:15;17.60;99.90
34877;DHT22;21086;44.780;17.194;2023-09-07T00:43:03;17.50;99.90
34877;DHT22;21086;44.780;17.194;2023-09-07T00:45:51;17.60;99.90
34877;DHT22;21086;44.780;17.194;2023-09-07T00:48:39;17.50;99.90
34877;DHT22;21086;44.780;17.194;2023-09-07T00:51:26;17.50;99.90
34877;DHT22;21086;44.780;17.194;2023-09-07T00:54:14;17.40;99.90
34877;DHT22;21086;44.780;17.194;2023-09-07T00:57:01;17.40;99.90
34877;DHT22;21086;44.780;17.194;2023-09-07T00:59:48;17.40;99.90
34877;DHT22;21086;44.780;17.194;2023-09-07T01:02:35;17.30;99.90
34877;DHT22;21086;44.780;17.194;2023-09-07T01:05:30;17.40;99.90
34877;DHT22;21086;44.780;17.194;2023-09-07T01:08:31;17.40;99.90
34877;DHT22;21086;44.780;17.194;2023-09-07T01:11:20;17.30;99.90
34877;DHT22;21086;44.780;17.194;2023-09-07T01:14:09;17.30;99.90
34877;DHT22;21086;44.780;17.194;2023-09-07T01:16:57;17.10;99.90
34877;DHT22;21086;44.780;17.194;2023-09-07T01:19:46;17.10;99.90
34877;DHT22;21086;44.780;17.194;2023-09-07T01:22:34;17.10;99.90
34877;DHT22;21086;44.780;17.194;2023-09-07T01:25:22;17.20;99.90
34877;DHT22;21086;44.780;17.194;2023-09-07T01:28:10;17.20;99.90
34877;DHT22;21086;44.780;17.194;2023-09-07T01:30:57;17.20;99.90
34877;DHT22;21086;44.780;17.194;2023-09-07T01:33:45;17.20;99.90
34877;DHT22;21086;44.780;17.194;2023-09-07T01:36:32;17.10;99.90
34877;DHT22;21086;44.780;17.194;2023-09-07T01:39:20;17.10;99.90
34877;DHT22;21086;44.780;17.194;2023-09-07T01:42:07;17.10;99.90
34877;DHT22;21086;44.780;17.194;2023-09-07T01:44:54;17.00;99.90
34877;DHT22;21086;44.780;17.194;2023-09-07T01:47:42;17.00;99.90
34877;DHT22;21086;44.780;17.194;2023-09-07T01:50:29;16.90;99.90
34877;DHT22;21086;44.780;17.194;2023-09-07T01:53:16;16.90;99.90
34877;DHT22;21086;44.780;17.194;2023-09-07T01:56:04;16.90;99.90
34877;DHT22;21086;44.780;17.194;2023-09-07T01:58:51;16.90;99.90
34877;DHT22;21086;44.780;17.194;2023-09-07T02:01:38;16.90;99.90
34877;DHT22;21086;44.780;17.194;2023-09-07T02:04:26;16.80;99.90
34877;DHT22;21086;44.780;17.194;2023-09-07T02:07:13;16.80;99.90
34877;DHT22;21086;44.780;17.194;2023-09-07T02:10:02;16.80;99.90
34877;DHT22;21086;44.780;17.194;2023-09-07T02:12:52;16.80;99.90
34877;DHT22;21086;44.780;17.194;2023-09-07T02:15:40;16.70;99.90
34877;DHT22;21086;44.780;17.194;2023-09-07T02:18:27;16.70;99.90
34877;DHT22;21086;44.780;17.194;2023-09-07T02:21:14;16.70;99.90
34877;DHT22;21086;44.780;17.194;2023-09-07T02:24:02;16.70;99.90
34877;DHT22;21086;44.780;17.194;2023-09-07T02:26:50;16.70;99.90
34877;DHT22;21086;44.780;17.194;2023-09-07T02:29:37;16.70;99.90
34877;DHT22;21086;44.780;17.194;2023-09-07T02:32:25;16.70;99.90
34877;DHT22;21086;44.780;17.194;2023-09-07T02:35:12;16.70;99.90
34877;DHT22;21086;44.780;17.194;2023-09-07T02:37:59;16.70;99.90
34877;DHT22;21086;44.780;17.194;2023-09-07T02:40:47;16.60;99.90
34877;DHT22;21086;44.780;17.194;2023-09-07T02:43:35;16.60;99.90
34877;DHT22;21086;44.780;17.194;2023-09-07T02:46:22;16.60;99.90
34877;DHT22;21086;44.780;17.194;2023-09-07T02:49:09;16.60;99.90
34877;DHT22;21086;44.780;17.194;2023-09-07T02:51:57;16.60;99.90
34877;DHT22;21086;44.780;17.194;2023-09-07T02:54:44;16.60;99.90
34877;DHT22;21086;44.780;17.194;2023-09-07T02:57:31;16.60;99.90
34877;DHT22;21086;44.780;17.194;2023-09-07T03:00:18;16.50;99.90
34877;DHT22;21086;44.780;17.194;2023-09-07T03:03:06;16.50;99.90
34877;DHT22;21086;44.780;17.194;2023-09-07T03:05:53;16.50;99.90
34877;DHT22;21086;44.780;17.194;2023-09-07T03:08:41;16.30;99.90
34877;DHT22;21086;44.780;17.194;2023-09-07T03:11:28;16.20;99.90
34877;DHT22;21086;44.780;17.194;2023-09-07T03:14:21;16.30;99.90
34877;DHT22;21086;44.780;17.194;2023-09-07T03:17:08;16.20;99.90
34877;DHT22;21086;44.780;17.194;2023-09-07T03:19:55;16.20;99.90
34877;DHT22;21086;44.780;17.194;2023-09-07T03:22:44;16.20;99.90
34877;DHT22;21086;44.780;17.194;2023-09-07T03:25:31;16.20;99.90
34877;DHT22;21086;44.780;17.194;2023-09-07T03:28:19;16.10;99.90
34877;DHT22;21086;44.780;17.194;2023-09-07T03:31:06;16.10;99.90
34877;DHT22;21086;44.780;17.194;2023-09-07T03:33:54;16.10;99.90
34877;DHT22;21086;44.780;17.194;2023-09-07T03:36:41;16.10;99.90
34877;DHT22;21086;44.780;17.194;2023-09-07T03:39:29;16.00;99.90
34877;DHT22;21086;44.780;17.194;2023-09-07T03:42:17;16.00;99.90
34877;DHT22;21086;44.780;17.194;2023-09-07T03:45:05;16.00;99.90
34877;DHT22;21086;44.780;17.194;2023-09-07T03:47:52;16.00;99.90
34877;DHT22;21086;44.780;17.194;2023-09-07T03:50:39;16.00;99.90
34877;DHT22;21086;44.780;17.194;2023-09-07T03:53:27;16.00;99.90
34877;DHT22;21086;44.780;17.194;2023-09-07T03:56:14;16.00;99.90
34877;DHT22;21086;44.780;17.194;2023-09-07T03:59:01;16.00;99.90
34877;DHT22;21086;44.780;17.194;2023-09-07T04:01:49;16.00;99.90
34877;DHT22;21086;44.780;17.194;2023-09-07T04:04:37;16.00;99.90
34877;DHT22;21086;44.780;17.194;2023-09-07T04:07:24;15.90;99.90
34877;DHT22;21086;44.780;17.194;2023-09-07T04:10:12;15.90;99.90
34877;DHT22;21086;44.780;17.194;2023-09-07T04:12:59;15.90;99.90
34877;DHT22;21086;44.780;17.194;2023-09-07T04:15:47;15.90;99.90
34877;DHT22;21086;44.780;17.194;2023-09-07T04:18:34;15.80;99.90
34877;DHT22;21086;44.780;17.194;2023-09-07T04:21:21;15.70;99.90
34877;DHT22;21086;44.780;17.194;2023-09-07T04:24:09;15.60;99.90
34877;DHT22;21086;44.780;17.194;2023-09-07T04:27:00;15.60;99.90
34877;DHT22;21086;44.780;17.194;2023-09-07T04:29:50;15.60;99.90
34877;DHT22;21086;44.780;17.194;2023-09-07T04:32:38;15.60;99.90
34877;DHT22;21086;44.780;17.194;2023-09-07T04:35:29;15.60;99.90
34877;DHT22;21086;44.780;17.194;2023-09-07T04:38:19;15.60;99.90
34877;DHT22;21086;44.780;17.194;2023-09-07T04:41:11;15.70;99.90
34877;DHT22;21086;44.780;17.194;2023-09-07T04:43:59;15.70;99.90
34877;DHT22;21086;44.780;17.194;2023-09-07T04:46:46;15.70;99.90
34877;DHT22;21086;44.780;17.194;2023-09-07T04:49:33;15.80;99.90
34877;DHT22;21086;44.780;17.194;2023-09-07T04:52:21;15.90;99.90
34877;DHT22;21086;44.780;17.194;2023-09-07T04:55:09;15.90;99.90
34877;DHT22;21086;44.780;17.194;2023-09-07T04:57:56;16.00;99.90
34877;DHT22;21086;44.780;17.194;2023-09-07T05:00:44;16.20;99.90
34877;DHT22;21086;44.780;17.194;2023-09-07T05:03:32;16.40;99.90
34877;DHT22;21086;44.780;17.194;2023-09-07T05:06:20;16.60;99.90
34877;DHT22;21086;44.780;17.194;2023-09-07T05:09:10;16.70;99.90
34877;DHT22;21086;44.780;17.194;2023-09-07T05:11:58;16.80;99.90
34877;DHT22;21086;44.780;17.194;2023-09-07T05:14:46;16.90;99.90
34877;DHT22;21086;44.780;17.194;2023-09-07T05:17:33;17.00;99.90
34877;DHT22;21086;44.780;17.194;2023-09-07T05:20:21;17.10;99.90
34877;DHT22;21086;44.780;17.194;2023-09-07T05:23:08;17.20;99.90
34877;DHT22;21086;44.780;17.194;2023-09-07T05:25:56;17.20;99.90
34877;DHT22;21086;44.780;17.194;2023-09-07T05:28:43;17.30;99.90
34877;DHT22;21086;44.780;17.194;2023-09-07T05:31:30;17.40;99.90
34877;DHT22;21086;44.780;17.194;2023-09-07T05:34:18;17.50;99.90
34877;DHT22;21086;44.780;17.194;2023-09-07T05:37:05;17.40;99.90
34877;DHT22;21086;44.780;17.194;2023-09-07T05:39:52;17.60;99.90
34877;DHT22;21086;44.780;17.194;2023-09-07T05:42:40;17.70;99.90
34877;DHT22;21086;44.780;17.194;2023-09-07T05:45:28;17.80;99.90
34877;DHT22;21086;44.780;17.194;2023-09-07T05:48:16;17.80;99.90
34877;DHT22;21086;44.780;17.194;2023-09-07T05:51:06;17.90;99.90
34877;DHT22;21086;44.780;17.194;2023-09-07T05:53:54;18.00;99.90
34877;DHT22;21086;44.780;17.194;2023-09-07T05:56:42;18.10;99.90
34877;DHT22;21086;44.780;17.194;2023-09-07T05:59:30;18.10;99.90
34877;DHT22;21086;44.780;17.194;2023-09-07T06:02:17;18.30;99.90
34877;DHT22;21086;44.780;17.194;2023-09-07T06:05:05;18.20;99.90
34877;DHT22;21086;44.780;17.194;2023-09-07T06:07:54;18.30;99.90
34877;DHT22;21086;44.780;17.194;2023-09-07T06:10:41;18.40;99.90
34877;DHT22;21086;44.780;17.194;2023-09-07T06:13:28;18.60;99.90
34877;DHT22;21086;44.780;17.194;2023-09-07T06:16:16;18.70;99.90
34877;DHT22;21086;44.780;17.194;2023-09-07T06:19:03;18.80;99.90
34877;DHT22;21086;44.780;17.194;2023-09-07T06:21:51;18.90;99.90
34877;DHT22;21086;44.780;17.194;2023-09-07T06:24:38;19.00;99.90
34877;DHT22;21086;44.780;17.194;2023-09-07T06:27:25;19.10;99.90
34877;DHT22;21086;44.780;17.194;2023-09-07T06:30:13;19.30;99.90
34877;DHT22;21086;44.780;17.194;2023-09-07T06:33:00;19.30;99.90
34877;DHT22;21086;44.780;17.194;2023-09-07T06:35:48;19.20;99.90
34877;DHT22;21086;44.780;17.194;2023-09-07T06:38:35;19.30;99.90
34877;DHT22;21086;44.780;17.194;2023-09-07T06:41:22;19.20;99.90
34877;DHT22;21086;44.780;17.194;2023-09-07T06:44:10;19.20;99.90
34877;DHT22;21086;44.780;17.194;2023-09-07T06:46:57;18.60;99.90
34877;DHT22;21086;44.780;17.194;2023-09-07T06:49:44;19.30;99.90
34877;DHT22;21086;44.780;17.194;2023-09-07T06:52:32;19.30;99.90
34877;DHT22;21086;44.780;17.194;2023-09-07T06:55:19;19.30;99.90
34877;DHT22;21086;44.780;17.194;2023-09-07T06:58:07;19.50;99.90
34877;DHT22;21086;44.780;17.194;2023-09-07T07:00:58;19.50;99.90
34877;DHT22;21086;44.780;17.194;2023-09-07T07:03:46;19.70;99.90
34877;DHT22;21086;44.780;17.194;2023-09-07T07:06:33;19.80;99.90
34877;DHT22;21086;44.780;17.194;2023-09-07T07:09:20;19.80;99.90
34877;DHT22;21086;44.780;17.194;2023-09-07T07:12:08;20.00;99.90
34877;DHT22;21086;44.780;17.194;2023-09-07T07:14:56;20.20;99.90
34877;DHT22;21086;44.780;17.194;2023-09-07T07:17:44;20.30;99.90
34877;DHT22;21086;44.780;17.194;2023-09-07T07:20:31;20.50;99.90
34877;DHT22;21086;44.780;17.194;2023-09-07T07:23:19;20.60;99.90
34877;DHT22;21086;44.780;17.194;2023-09-07T07:26:06;20.80;99.90
34877;DHT22;21086;44.780;17.194;2023-09-07T07:28:53;21.00;99.90
34877;DHT22;21086;44.780;17.194;2023-09-07T07:31:41;21.00;99.90
34877;DHT22;21086;44.780;17.194;2023-09-07T07:34:28;21.10;99.90
34877;DHT22;21086;44.780;17.194;2023-09-07T07:37:16;21.30;99.90
34877;DHT22;21086;44.780;17.194;2023-09-07T07:40:04;21.40;99.90
34877;DHT22;21086;44.780;17.194;2023-09-07T07:42:52;21.50;99.90
34877;DHT22;21086;44.780;17.194;2023-09-07T07:45:40;21.40;99.90
34877;DHT22;21086;44.780;17.194;2023-09-07T07:48:27;21.60;99.90
34877;DHT22;21086;44.780;17.194;2023-09-07T07:51:16;21.90;99.90
34877;DHT22;21086;44.780;17.194;2023-09-07T07:54:04;22.00;99.90
34877;DHT22;21086;44.780;17.194;2023-09-07T07:56:51;22.10;99.90
34877;DHT22;21086;44.780;17.194;2023-09-07T07:59:39;22.20;99.90
34877;DHT22;21086;44.780;17.194;2023-09-07T08:02:26;22.20;99.90
34877;DHT22;21086;44.780;17.194;2023-09-07T08:05:14;22.30;99.90
34877;DHT22;21086;44.780;17.194;2023-09-07T08:08:01;22.50;99.90
34877;DHT22;21086;44.780;17.194;2023-09-07T08:10:49;22.60;99.90
34877;DHT22;21086;44.780;17.194;2023-09-07T08:13:36;22.80;99.90
34877;DHT22;21086;44.780;17.194;2023-09-07T08:16:24;22.80;99.90
34877;DHT22;21086;44.780;17.194;2023-09-07T08:19:11;22.90;99.90
34877;DHT22;21086;44.780;17.194;2023-09-07T08:21:59;23.00;99.90
34877;DHT22;21086;44.780;17.194;2023-09-07T08:24:46;23.10;99.90
34877;DHT22;21086;44.780;17.194;2023-09-07T08:27:35;23.10;99.90
34877;DHT22;21086;44.780;17.194;2023-09-07T08:30:22;23.10;99.90
34877;DHT22;21086;44.780;17.194;2023-09-07T08:33:12;23.10;99.90
34877;DHT22;21086;44.780;17.194;2023-09-07T08:36:00;23.10;99.90
34877;DHT22;21086;44.780;17.194;2023-09-07T08:38:50;23.30;99.90
34877;DHT22;21086;44.780;17.194;2023-09-07T08:41:38;23.50;99.90
34877;DHT22;21086;44.780;17.194;2023-09-07T08:44:47;23.70;99.90
34877;DHT22;21086;44.780;17.194;2023-09-07T08:47:37;23.80;99.90
34877;DHT22;21086;44.780;17.194;2023-09-07T08:50:26;23.70;99.90
34877;DHT22;21086;44.780;17.194;2023-09-07T08:53:18;23.90;99.90
34877;DHT22;21086;44.780;17.194;2023-09-07T08:56:07;24.00;99.90
34877;DHT22;21086;44.780;17.194;2023-09-07T08:58:57;24.10;99.90
34877;DHT22;21086;44.780;17.194;2023-09-07T09:01:45;24.20;99.90
34877;DHT22;21086;44.780;17.194;2023-09-07T09:04:33;24.40;99.90
34877;DHT22;21086;44.780;17.194;2023-09-07T09:07:21;24.70;99.90
34877;DHT22;21086;44.780;17.194;2023-09-07T09:10:10;24.80;99.90
34877;DHT22;21086;44.780;17.194;2023-09-07T09:12:57;25.10;99.90
34877;DHT22;21086;44.780;17.194;2023-09-07T09:15:48;25.30;99.90
34877;DHT22;21086;44.780;17.194;2023-09-07T09:18:35;25.40;99.90
34877;DHT22;21086;44.780;17.194;2023-09-07T09:21:27;25.60;99.90
34877;DHT22;21086;44.780;17.194;2023-09-07T09:24:15;25.70;99.90
34877;DHT22;21086;44.780;17.194;2023-09-07T09:27:05;25.90;99.90
34877;DHT22;21086;44.780;17.194;2023-09-07T09:29:53;26.00;99.90
34877;DHT22;21086;44.780;17.194;2023-09-07T09:32:40;26.00;99.90
34877;DHT22;21086;44.780;17.194;2023-09-07T09:35:28;26.00;99.90
34877;DHT22;21086;44.780;17.194;2023-09-07T09:38:17;26.00;99.90
34877;DHT22;21086;44.780;17.194;2023-09-07T09:41:05;26.20;99.90
34877;DHT22;21086;44.780;17.194;2023-09-07T09:43:52;26.30;99.90
34877;DHT22;21086;44.780;17.194;2023-09-07T09:46:41;26.30;99.90
34877;DHT22;21086;44.780;17.194;2023-09-07T09:49:30;26.50;99.90
34877;DHT22;21086;44.780;17.194;2023-09-07T09:52:17;26.50;99.90
34877;DHT22;21086;44.780;17.194;2023-09-07T09:55:06;26.60;99.90
34877;DHT22;21086;44.780;17.194;2023-09-07T09:57:55;26.70;99.90
34877;DHT22;21086;44.780;17.194;2023-09-07T10:00:45;26.90;99.90
34877;DHT22;21086;44.780;17.194;2023-09-07T10:03:41;26.90;99.90
34877;DHT22;21086;44.780;17.194;2023-09-07T10:06:33;27.00;99.90
34877;DHT22;21086;44.780;17.194;2023-09-07T10:09:21;27.30;99.90
34877;DHT22;21086;44.780;17.194;2023-09-07T10:12:12;27.40;99.90
34877;DHT22;21086;44.780;17.194;2023-09-07T10:15:04;27.60;99.90
34877;DHT22;21086;44.780;17.194;2023-09-07T10:18:03;27.80;99.90
34877;DHT22;21086;44.780;17.194;2023-09-07T10:20:53;28.00;99.90
34877;DHT22;21086;44.780;17.194;2023-09-07T10:23:43;28.30;99.90
34877;DHT22;21086;44.780;17.194;2023-09-07T10:26:31;28.80;99.90
34877;DHT22;21086;44.780;17.194;2023-09-07T10:29:18;29.00;99.90
34877;DHT22;21086;44.780;17.194;2023-09-07T10:32:06;29.10;99.90
34877;DHT22;21086;44.780;17.194;2023-09-07T10:34:54;29.50;99.90
34877;DHT22;21086;44.780;17.194;2023-09-07T10:37:45;30.40;99.90
34877;DHT22;21086;44.780;17.194;2023-09-07T10:40:35;31.00;99.90
34877;DHT22;21086;44.780;17.194;2023-09-07T10:43:30;31.60;99.90
34877;DHT22;21086;44.780;17.194;2023-09-07T10:46:20;32.00;99.90
34877;DHT22;21086;44.780;17.194;2023-09-07T10:49:10;32.60;99.90
34877;DHT22;21086;44.780;17.194;2023-09-07T10:52:01;33.20;99.90
34877;DHT22;21086;44.780;17.194;2023-09-07T10:54:57;33.40;99.90
34877;DHT22;21086;44.780;17.194;2023-09-07T10:57:46;34.20;99.90
34877;DHT22;21086;44.780;17.194;2023-09-07T11:00:34;35.00;99.90
34877;DHT22;21086;44.780;17.194;2023-09-07T11:03:24;35.30;99.90
34877;DHT22;21086;44.780;17.194;2023-09-07T11:06:17;34.90;99.90
34877;DHT22;21086;44.780;17.194;2023-09-07T11:09:06;35.30;99.90
34877;DHT22;21086;44.780;17.194;2023-09-07T11:11:57;35.20;99.90
34877;DHT22;21086;44.780;17.194;2023-09-07T11:14:47;36.20;99.90
34877;DHT22;21086;44.780;17.194;2023-09-07T11:17:38;37.20;99.90
34877;DHT22;21086;44.780;17.194;2023-09-07T11:20:28;36.80;99.90
34877;DHT22;21086;44.780;17.194;2023-09-07T11:23:17;37.40;99.90
34877;DHT22;21086;44.780;17.194;2023-09-07T11:26:05;38.00;99.90
34877;DHT22;21086;44.780;17.194;2023-09-07T11:28:52;39.20;99.90
34877;DHT22;21086;44.780;17.194;2023-09-07T11:31:40;39.50;99.90
34877;DHT22;21086;44.780;17.194;2023-09-07T11:34:27;39.00;99.90
34877;DHT22;21086;44.780;17.194;2023-09-07T11:37:14;39.20;99.90
34877;DHT22;21086;44.780;17.194;2023-09-07T11:40:02;39.80;99.90
34877;DHT22;21086;44.780;17.194;2023-09-07T11:42:51;40.40;99.90
34877;DHT22;21086;44.780;17.194;2023-09-07T11:45:40;40.50;99.90
34877;DHT22;21086;44.780;17.194;2023-09-07T11:48:31;41.00;99.90
34877;DHT22;21086;44.780;17.194;2023-09-07T11:51:19;40.70;99.90
34877;DHT22;21086;44.780;17.194;2023-09-07T11:54:09;40.80;99.90
34877;DHT22;21086;44.780;17.194;2023-09-07T11:57:00;41.60;99.90
34877;DHT22;21086;44.780;17.194;2023-09-07T11:59:47;41.70;99.90
34877;DHT22;21086;44.780;17.194;2023-09-07T12:02:44;41.80;99.90
34877;DHT22;21086;44.780;17.194;2023-09-07T12:05:32;42.20;99.90
34877;DHT22;21086;44.780;17.194;2023-09-07T12:08:19;42.20;99.90
34877;DHT22;21086;44.780;17.194;2023-09-07T12:11:06;42.50;99.90
34877;DHT22;21086;44.780;17.194;2023-09-07T12:13:54;42.50;99.90
34877;DHT22;21086;44.780;17.194;2023-09-07T12:16:41;42.50;99.90
34877;DHT22;21086;44.780;17.194;2023-09-07T12:19:29;42.20;99.90
34877;DHT22;21086;44.780;17.194;2023-09-07T12:22:16;42.50;99.90
34877;DHT22;21086;44.780;17.194;2023-09-07T12:25:05;41.80;99.90
34877;DHT22;21086;44.780;17.194;2023-09-07T12:28:02;39.50;99.90
34877;DHT22;21086;44.780;17.194;2023-09-07T12:30:50;38.80;99.90
34877;DHT22;21086;44.780;17.194;2023-09-07T12:33:38;39.80;99.90
34877;DHT22;21086;44.780;17.194;2023-09-07T12:36:25;39.40;99.90
34877;DHT22;21086;44.780;17.194;2023-09-07T12:39:17;37.80;99.90
34877;DHT22;21086;44.780;17.194;2023-09-07T12:42:04;37.20;99.90
34877;DHT22;21086;44.780;17.194;2023-09-07T12:44:52;38.50;99.90
34877;DHT22;21086;44.780;17.194;2023-09-07T12:47:39;39.60;99.90
34877;DHT22;21086;44.780;17.194;2023-09-07T12:50:27;40.50;99.90
34877;DHT22;21086;44.780;17.194;2023-09-07T12:53:14;41.00;99.90
34877;DHT22;21086;44.780;17.194;2023-09-07T12:56:03;40.40;99.90
34877;DHT22;21086;44.780;17.194;2023-09-07T12:58:50;39.80;99.90
34877;DHT22;21086;44.780;17.194;2023-09-07T13:01:39;40.20;99.90
34877;DHT22;21086;44.780;17.194;2023-09-07T13:04:27;41.30;99.90
34877;DHT22;21086;44.780;17.194;2023-09-07T13:07:21;42.10;99.90
34877;DHT22;21086;44.780;17.194;2023-09-07T13:10:09;43.30;99.90
34877;DHT22;21086;44.780;17.194;2023-09-07T13:12:56;43.10;99.90
34877;DHT22;21086;44.780;17.194;2023-09-07T13:15:43;42.50;99.90
34877;DHT22;21086;44.780;17.194;2023-09-07T13:18:31;42.60;99.90
34877;DHT22;21086;44.780;17.194;2023-09-07T13:21:18;42.10;99.90
34877;DHT22;21086;44.780;17.194;2023-09-07T13:24:15;41.10;99.90
34877;DHT22;21086;44.780;17.194;2023-09-07T13:27:49;41.50;99.90
34877;DHT22;21086;44.780;17.194;2023-09-07T13:31:01;42.30;99.90
34877;DHT22;21086;44.780;17.194;2023-09-07T13:33:49;42.50;99.90
34877;DHT22;21086;44.780;17.194;2023-09-07T13:36:37;41.60;99.90
34877;DHT22;21086;44.780;17.194;2023-09-07T13:39:24;40.80;99.90
34877;DHT22;21086;44.780;17.194;2023-09-07T13:42:11;41.20;99.90
34877;DHT22;21086;44.780;17.194;2023-09-07T13:44:58;41.70;99.90
34877;DHT22;21086;44.780;17.194;2023-09-07T13:47:49;42.20;99.90
34877;DHT22;21086;44.780;17.194;2023-09-07T13:50:36;41.60;99.90
34877;DHT22;21086;44.780;17.194;2023-09-07T13:53:24;41.10;99.90
34877;DHT22;21086;44.780;17.194;2023-09-07T13:56:11;41.10;99.90
34877;DHT22;21086;44.780;17.194;2023-09-07T13:58:59;41.00;99.90
34877;DHT22;21086;44.780;17.194;2023-09-07T14:01:47;41.90;99.90
34877;DHT22;21086;44.780;17.194;2023-09-07T14:04:35;42.20;99.90
34877;DHT22;21086;44.780;17.194;2023-09-07T14:07:24;42.00;99.90
34877;DHT22;21086;44.780;17.194;2023-09-07T14:10:17;41.50;99.90
34877;DHT22;21086;44.780;17.194;2023-09-07T14:13:04;40.80;99.90
34877;DHT22;21086;44.780;17.194;2023-09-07T14:15:52;41.30;99.90
34877;DHT22;21086;44.780;17.194;2023-09-07T14:18:39;41.50;99.90
34877;DHT22;21086;44.780;17.194;2023-09-07T14:21:26;42.20;99.90
34877;DHT22;21086;44.780;17.194;2023-09-07T14:24:14;42.30;99.90
34877;DHT22;21086;44.780;17.194;2023-09-07T14:27:01;42.40;99.90
34877;DHT22;21086;44.780;17.194;2023-09-07T14:29:48;43.10;99.90
34877;DHT22;21086;44.780;17.194;2023-09-07T14:32:36;42.90;99.90
34877;DHT22;21086;44.780;17.194;2023-09-07T14:35:23;41.60;99.90
34877;DHT22;21086;44.780;17.194;2023-09-07T14:38:11;40.50;99.90
34877;DHT22;21086;44.780;17.194;2023-09-07T14:40:58;40.70;99.90
34877;DHT22;21086;44.780;17.194;2023-09-07T14:43:47;40.30;99.90
34877;DHT22;21086;44.780;17.194;2023-09-07T14:46:35;40.10;99.90
34877;DHT22;21086;44.780;17.194;2023-09-07T14:49:23;40.70;99.90
34877;DHT22;21086;44.780;17.194;2023-09-07T14:52:10;41.20;99.90
34877;DHT22;21086;44.780;17.194;2023-09-07T14:54:58;41.60;99.90
34877;DHT22;21086;44.780;17.194;2023-09-07T14:57:45;41.20;99.90
34877;DHT22;21086;44.780;17.194;2023-09-07T15:00:33;41.00;99.90
34877;DHT22;21086;44.780;17.194;2023-09-07T15:03:21;40.50;99.90
34877;DHT22;21086;44.780;17.194;2023-09-07T15:06:08;39.70;99.90
34877;DHT22;21086;44.780;17.194;2023-09-07T15:08:59;40.00;99.90
34877;DHT22;21086;44.780;17.194;2023-09-07T15:11:47;39.60;99.90
34877;DHT22;21086;44.780;17.194;2023-09-07T15:14:34;40.30;99.90
34877;DHT22;21086;44.780;17.194;2023-09-07T15:17:21;40.50;99.90
34877;DHT22;21086;44.780;17.194;2023-09-07T15:20:09;41.10;99.90
34877;DHT22;21086;44.780;17.194;2023-09-07T15:22:57;40.80;99.90
34877;DHT22;21086;44.780;17.194;2023-09-07T15:25:44;40.70;99.90
34877;DHT22;21086;44.780;17.194;2023-09-07T15:28:32;40.30;99.90
34877;DHT22;21086;44.780;17.194;2023-09-07T15:31:20;39.80;99.90
34877;DHT22;21086;44.780;17.194;2023-09-07T15:34:07;40.00;99.90
34877;DHT22;21086;44.780;17.194;2023-09-07T15:36:54;39.60;99.90
34877;DHT22;21086;44.780;17.194;2023-09-07T15:39:41;38.90;99.90
34877;DHT22;21086;44.780;17.194;2023-09-07T15:42:31;38.40;99.90
34877;DHT22;21086;44.780;17.194;2023-09-07T15:45:19;37.80;99.90
34877;DHT22;21086;44.780;17.194;2023-09-07T15:48:06;38.00;99.90
34877;DHT22;21086;44.780;17.194;2023-09-07T15:50:53;37.30;99.90
34877;DHT22;21086;44.780;17.194;2023-09-07T15:53:41;36.40;99.90
34877;DHT22;21086;44.780;17.194;2023-09-07T15:56:28;36.10;99.90
34877;DHT22;21086;44.780;17.194;2023-09-07T15:59:15;36.20;99.90
34877;DHT22;21086;44.780;17.194;2023-09-07T16:02:03;36.40;99.90
34877;DHT22;21086;44.780;17.194;2023-09-07T16:04:50;36.30;99.90
34877;DHT22;21086;44.780;17.194;2023-09-07T16:07:39;36.20;99.90
34877;DHT22;21086;44.780;17.194;2023-09-07T16:10:27;36.40;99.90
34877;DHT22;21086;44.780;17.194;2023-09-07T16:13:15;35.80;99.90
34877;DHT22;21086;44.780;17.194;2023-09-07T16:16:03;36.10;99.90
34877;DHT22;21086;44.780;17.194;2023-09-07T16:18:50;36.10;99.90
34877;DHT22;21086;44.780;17.194;2023-09-07T16:21:38;36.00;99.90
34877;DHT22;21086;44.780;17.194;2023-09-07T16:24:25;35.10;99.90
34877;DHT22;21086;44.780;17.194;2023-09-07T16:27:12;34.80;99.90
34877;DHT22;21086;44.780;17.194;2023-09-07T16:30:00;34.50;99.90
34877;DHT22;21086;44.780;17.194;2023-09-07T16:32:48;34.30;99.90
34877;DHT22;21086;44.780;17.194;2023-09-07T16:35:36;34.10;99.90
34877;DHT22;21086;44.780;17.194;2023-09-07T16:38:23;33.50;99.90
34877;DHT22;21086;44.780;17.194;2023-09-07T16:41:10;33.00;99.90
34877;DHT22;21086;44.780;17.194;2023-09-07T16:43:58;32.60;99.90
34877;DHT22;21086;44.780;17.194;2023-09-07T16:46:45;32.10;99.90
34877;DHT22;21086;44.780;17.194;2023-09-07T16:49:32;32.00;99.90
34877;DHT22;21086;44.780;17.194;2023-09-07T16:52:20;31.70;99.90
34877;DHT22;21086;44.780;17.194;2023-09-07T16:55:07;31.40;99.90
34877;DHT22;21086;44.780;17.194;2023-09-07T16:57:56;31.00;99.90
34877;DHT22;21086;44.780;17.194;2023-09-07T17:00:43;30.40;99.90
34877;DHT22;21086;44.780;17.194;2023-09-07T17:03:31;29.70;99.90
34877;DHT22;21086;44.780;17.194;2023-09-07T17:06:18;29.20;99.90
34877;DHT22;21086;44.780;17.194;2023-09-07T17:09:06;28.60;99.90
34877;DHT22;21086;44.780;17.194;2023-09-07T17:11:53;28.30;99.90
34877;DHT22;21086;44.780;17.194;2023-09-07T17:14:41;27.80;99.90
34877;DHT22;21086;44.780;17.194;2023-09-07T17:17:28;27.50;99.90
34877;DHT22;21086;44.780;17.194;2023-09-07T17:20:16;27.30;99.90
34877;DHT22;21086;44.780;17.194;2023-09-07T17:23:04;26.90;99.90
34877;DHT22;21086;44.780;17.194;2023-09-07T17:25:51;26.50;99.90